Time;durP1;ratioP1;P1;durP2;ratioP2;P2;SDS_P1;SDS_P2;PMS_P1;PMS_P2;Temp;Humidity;BMP_temperature;BMP_pressure;BME280_temperature;BME280_humidity;BME280_pressure;Samples;Min_cycle;Max_cycle;Signal;HPM_P1;HPM_P2
2021/10/04 00:01:33;;;;;;;21.82;15.15;;;;;;;14.47;49.17;101011.50;1776188;78;21025;-63
2021/10/04 00:03:59;;;;;;;21.45;14.45;;;;;;;14.45;49.27;101007.33;1788606;78;21072;-63
2021/10/04 00:06:25;;;;;;;17.70;13.75;;;;;;;14.41;49.37;101000.60;1786699;78;21531;-63
2021/10/04 00:08:51;;;;;;;20.02;14.13;;;;;;;14.39;49.42;100999.45;1774937;78;21544;-63
2021/10/04 00:11:19;;;;;;;17.92;13.48;;;;;;;14.36;49.52;100997.09;1753391;80;21902;-63
2021/10/04 00:13:45;;;;;;;18.70;14.68;;;;;;;14.33;49.60;100997.41;1782956;78;21476;-63
2021/10/04 00:16:12;;;;;;;20.48;15.60;;;;;;;14.32;49.65;100991.23;1774848;78;20985;-63
2021/10/04 00:18:40;;;;;;;23.38;15.98;;;;;;;14.31;49.74;100994.05;1770792;78;21006;-63
2021/10/04 00:21:06;;;;;;;17.23;14.05;;;;;;;14.29;49.83;100986.70;1780098;78;21016;-62
2021/10/04 00:23:33;;;;;;;20.37;15.20;;;;;;;14.27;49.91;100982.84;1751203;80;21060;-63
2021/10/04 00:26:00;;;;;;;20.90;14.85;;;;;;;14.25;49.99;100978.67;1794317;80;21021;-62
2021/10/04 00:28:27;;;;;;;20.25;14.73;;;;;;;14.21;50.09;100971.47;1792415;78;21033;-63
2021/10/04 00:30:53;;;;;;;17.85;15.50;;;;;;;14.19;50.18;100972.14;1794484;78;21070;-63
2021/10/04 00:33:19;;;;;;;21.33;15.72;;;;;;;14.17;50.24;100968.79;1781361;78;21111;-63
2021/10/04 00:35:46;;;;;;;20.37;14.83;;;;;;;14.15;50.33;100965.45;1790581;78;21013;-62
2021/10/04 00:38:13;;;;;;;21.68;14.28;;;;;;;14.13;50.40;100967.44;1797385;78;21040;-63
2021/10/04 00:40:39;;;;;;;21.20;15.38;;;;;;;14.11;50.47;100968.11;1793755;80;21045;-62
2021/10/04 00:43:05;;;;;;;20.27;14.50;;;;;;;14.09;50.52;100967.43;1794953;78;21545;-63
2021/10/04 00:45:33;;;;;;;20.77;14.68;;;;;;;14.08;50.56;100971.95;1794605;80;21588;-63
2021/10/04 00:47:59;;;;;;;19.90;14.73;;;;;;;14.06;50.64;100973.95;1773050;78;21127;-63
2021/10/04 00:50:26;;;;;;;19.15;15.05;;;;;;;14.04;50.68;100975.08;1791555;78;21352;-62
2021/10/04 00:52:53;;;;;;;20.30;14.55;;;;;;;14.02;50.76;100981.09;1733661;81;21092;-63
2021/10/04 00:55:20;;;;;;;22.67;14.95;;;;;;;14.00;50.83;100986.59;1777887;78;21028;-62
2021/10/04 00:57:46;;;;;;;19.73;14.85;;;;;;;13.96;50.76;100988.77;1794851;78;21105;-64
2021/10/04 01:00:17;;;;;;;19.02;15.98;;;;;;;13.94;50.80;100993.40;1799775;78;21096;-64
2021/10/04 01:02:44;;;;;;;19.95;15.30;;;;;;;13.92;50.77;100992.73;1808939;78;21496;-64
2021/10/04 01:05:11;;;;;;;21.40;15.98;;;;;;;13.90;50.84;100989.88;1804868;78;21045;-62
2021/10/04 01:07:38;;;;;;;24.47;15.78;;;;;;;13.87;50.88;100982.17;1794118;78;21028;-64
2021/10/04 01:10:05;;;;;;;20.97;15.90;;;;;;;13.84;50.94;100983.34;1768715;79;21030;-64
2021/10/04 01:12:32;;;;;;;19.52;14.80;;;;;;;13.82;51.02;100992.02;1778442;80;21169;-63
2021/10/04 01:14:58;;;;;;;17.87;14.95;;;;;;;13.79;51.09;100995.02;1795185;79;21016;-63
2021/10/04 01:17:24;;;;;;;18.50;14.30;;;;;;;13.77;51.09;100987.63;1771658;80;21053;-63
2021/10/04 01:19:51;;;;;;;17.15;13.50;;;;;;;13.74;51.13;100987.47;1786389;79;21044;-62
2021/10/04 01:23:20;;;;;;;18.00;15.45;;;;;;;13.75;51.18;100985.63;1862494;76;28113;-63
2021/10/04 01:25:46;;;;;;;22.77;16.60;;;;;;;13.69;51.20;100990.27;1825602;77;20983;-63
2021/10/04 01:28:13;;;;;;;24.32;16.93;;;;;;;13.66;51.28;100998.11;1839946;77;21113;-62
2021/10/04 01:30:39;;;;;;;20.92;16.45;;;;;;;13.64;51.24;101000.60;1825136;77;21487;-63
2021/10/04 01:33:06;;;;;;;22.73;17.85;;;;;;;13.61;51.28;100996.91;1820924;77;21010;-63
2021/10/04 01:35:32;;;;;;;19.90;16.73;;;;;;;13.57;51.35;100999.05;1821325;78;20904;-63
2021/10/04 01:37:58;;;;;;;24.43;17.07;;;;;;;13.54;51.40;100997.53;1821662;77;20998;-64
2021/10/04 01:40:24;;;;;;;27.85;18.00;;;;;;;13.50;51.50;100995.31;1809077;77;21200;-64
2021/10/04 01:42:51;;;;;;;24.82;17.40;;;;;;;13.48;51.59;100997.30;1826513;77;21035;-63
2021/10/04 01:45:20;;;;;;;21.17;17.17;;;;;;;13.46;51.61;100993.95;1836747;77;21030;-63
2021/10/04 01:47:47;;;;;;;25.82;18.52;;;;;;;13.43;51.68;100995.12;1823051;77;21477;-63
2021/10/04 01:50:14;;;;;;;21.87;17.67;;;;;;;13.40;51.74;100999.92;1816232;77;21516;-63
2021/10/04 01:52:40;;;;;;;23.42;17.90;;;;;;;13.39;51.69;100995.59;1812813;77;21794;-63
2021/10/04 01:55:08;;;;;;;23.60;18.27;;;;;;;13.36;51.70;100990.05;1815576;78;21038;-64
2021/10/04 01:57:34;;;;;;;23.00;19.10;;;;;;;13.35;51.68;100995.06;1822504;77;21088;-63
2021/10/04 02:00:02;;;;;;;20.65;17.57;;;;;;;13.32;51.71;101003.37;1822493;77;21065;-62
2021/10/04 02:02:31;;;;;;;24.57;19.02;;;;;;;13.30;51.72;101002.69;1818388;77;21038;-63
2021/10/04 02:04:58;;;;;;;24.10;18.25;;;;;;;13.28;51.76;101003.31;1815906;77;23279;-64
2021/10/04 02:07:25;;;;;;;24.45;18.65;;;;;;;13.24;51.80;101000.11;1824444;77;21036;-63
2021/10/04 02:09:51;;;;;;;24.70;18.80;;;;;;;13.23;51.80;101007.79;1825452;77;21497;-63
2021/10/04 02:12:17;;;;;;;33.33;18.67;;;;;;;13.21;51.79;101006.25;1792503;77;21571;-63
2021/10/04 02:14:44;;;;;;;24.72;20.35;;;;;;;13.18;51.79;101008.23;1804347;77;21036;-63
2021/10/04 02:17:10;;;;;;;22.27;18.35;;;;;;;13.16;51.84;101002.22;1829273;77;21148;-63
2021/10/04 02:19:36;;;;;;;22.65;18.77;;;;;;;13.14;51.93;101000.70;1815897;77;21038;-63
2021/10/04 02:22:04;;;;;;;24.10;19.82;;;;;;;13.13;51.93;101011.02;1817269;78;21032;-62
2021/10/04 02:24:30;;;;;;;24.55;19.02;;;;;;;13.10;51.98;101013.51;1819989;78;21045;-63
2021/10/04 02:26:56;;;;;;;25.65;19.23;;;;;;;13.08;51.99;101019.49;1819099;77;21048;-63
2021/10/04 02:29:23;;;;;;;24.18;18.20;;;;;;;13.07;51.96;101012.47;1807057;78;21139;-63
2021/10/04 02:31:49;;;;;;;21.65;18.27;;;;;;;13.05;51.88;101015.78;1822833;78;21484;-62
2021/10/04 02:34:16;;;;;;;23.85;18.67;;;;;;;13.03;51.79;101012.44;1824989;77;21475;-63
2021/10/04 02:36:42;;;;;;;22.25;17.98;;;;;;;13.01;51.75;101016.26;1819241;77;22011;-63
2021/10/04 02:39:09;;;;;;;22.13;17.27;;;;;;;12.98;51.76;101017.41;1825636;77;21556;-62
2021/10/04 02:41:35;;;;;;;21.62;18.05;;;;;;;12.95;51.79;101019.86;1825708;77;21120;-64
2021/10/04 02:44:02;;;;;;;27.27;18.57;;;;;;;12.93;51.82;101021.02;1825862;77;20998;-63
2021/10/04 02:46:28;;;;;;;24.40;19.10;;;;;;;12.90;51.90;101015.98;1825033;77;20994;-63
2021/10/04 02:48:55;;;;;;;24.77;18.62;;;;;;;12.88;51.94;101012.63;1825818;77;21025;-62
2021/10/04 02:51:21;;;;;;;25.43;17.95;;;;;;;12.85;52.01;101016.95;1825423;77;21026;-63
2021/10/04 02:53:47;;;;;;;24.40;18.75;;;;;;;12.83;52.03;101016.27;1818418;77;23333;-63
2021/10/04 02:56:15;;;;;;;23.07;19.25;;;;;;;12.82;52.09;101018.57;1821740;77;21033;-61
2021/10/04 02:58:41;;;;;;;27.27;20.32;;;;;;;12.79;52.11;101017.89;1803740;78;21532;-63
2021/10/04 03:01:08;;;;;;;27.40;19.07;;;;;;;12.78;52.05;101012.70;1823847;77;21025;-62
2021/10/04 03:03:34;;;;;;;23.87;18.90;;;;;;;12.78;52.06;101021.53;1825810;77;21041;-63
2021/10/04 03:06:01;;;;;;;28.17;19.00;;;;;;;12.77;52.01;101027.04;1825886;77;21156;-63
2021/10/04 03:08:27;;;;;;;25.30;20.10;;;;;;;12.76;52.02;101029.34;1825817;77;21499;-63
2021/10/04 03:10:53;;;;;;;25.55;20.50;;;;;;;12.75;52.01;101029.02;1806263;77;21524;-63
2021/10/04 03:13:20;;;;;;;25.52;19.17;;;;;;;12.73;52.00;101030.50;1821224;77;21601;-63
2021/10/04 03:15:46;;;;;;;22.40;19.17;;;;;;;12.73;52.04;101031.83;1825250;77;21013;-63
2021/10/04 03:18:12;;;;;;;24.87;19.90;;;;;;;12.70;52.06;101029.45;1822420;78;21060;-63
2021/10/04 03:20:40;;;;;;;26.60;20.08;;;;;;;12.68;52.14;101033.27;1848188;77;21045;-64
2021/10/04 03:23:06;;;;;;;25.50;21.27;;;;;;;12.66;52.18;101027.25;1814523;77;21042;-64
2021/10/04 03:25:33;;;;;;;28.87;20.95;;;;;;;12.62;52.32;101022.70;1818282;77;21010;-63
2021/10/04 03:27:59;;;;;;;27.32;21.27;;;;;;;12.59;52.43;101023.86;1803451;77;21028;-62
2021/10/04 03:30:25;;;;;;;26.02;20.57;;;;;;;12.58;52.48;101024.83;1817565;77;21046;-63
2021/10/04 03:32:51;;;;;;;30.52;21.00;;;;;;;12.56;52.57;101024.64;1809810;78;21032;-62
2021/10/04 03:35:18;;;;;;;25.37;20.90;;;;;;;12.54;52.61;101025.30;1789639;78;20982;-62
2021/10/04 03:37:44;;;;;;;25.37;19.25;;;;;;;12.52;52.64;101025.94;1813995;78;21116;-62
2021/10/04 03:40:12;;;;;;;24.02;18.50;;;;;;;12.51;52.64;101025.08;1791901;78;21032;-64
2021/10/04 03:42:39;;;;;;;28.07;19.60;;;;;;;12.51;52.63;101030.91;1815071;78;21796;-63
2021/10/04 03:45:06;;;;;;;27.50;19.52;;;;;;;12.47;52.65;101025.53;1794588;78;21608;-63
2021/10/04 03:47:34;;;;;;;26.52;19.77;;;;;;;12.44;52.66;101030.67;1813200;77;21018;-63
2021/10/04 03:50:00;;;;;;;22.75;18.95;;;;;;;12.44;52.69;101036.48;1799785;77;21515;-63
2021/10/04 03:52:27;;;;;;;22.98;18.27;;;;;;;12.41;52.72;101034.96;1820274;78;21600;-62
2021/10/04 03:54:53;;;;;;;26.50;19.07;;;;;;;12.39;52.73;101040.43;1819206;77;21505;-63
2021/10/04 03:57:19;;;;;;;24.55;18.25;;;;;;;12.38;52.74;101038.77;1816846;78;21048;-64
2021/10/04 03:59:45;;;;;;;24.07;17.37;;;;;;;12.37;52.77;101038.91;1796723;77;21011;-63
2021/10/04 04:02:12;;;;;;;23.70;18.98;;;;;;;12.36;52.78;101039.41;1806711;77;20994;-64
2021/10/04 04:04:39;;;;;;;24.43;19.85;;;;;;;12.35;52.76;101041.72;1815476;78;21013;-63
2021/10/04 04:07:07;;;;;;;22.95;18.17;;;;;;;12.36;52.78;101046.08;1798702;77;21123;-63
2021/10/04 04:09:33;;;;;;;24.85;19.92;;;;;;;12.36;52.79;101047.88;1818100;77;21076;-62
2021/10/04 04:12:00;;;;;;;21.60;17.75;;;;;;;12.35;52.79;101053.71;1816703;77;21006;-63
2021/10/04 04:14:26;;;;;;;25.17;18.42;;;;;;;12.36;52.79;101055.41;1814828;77;21033;-63
2021/10/04 04:16:53;;;;;;;23.57;18.02;;;;;;;12.36;52.75;101054.07;1846237;77;21021;-63
2021/10/04 04:19:19;;;;;;;25.35;19.20;;;;;;;12.36;52.68;101064.73;1819287;77;21065;-64
2021/10/04 04:21:45;;;;;;;25.12;16.87;;;;;;;12.36;52.61;101057.20;1825478;77;21099;-63
2021/10/04 04:24:16;;;;;;;23.90;18.27;;;;;;;12.36;52.60;101074.06;1812318;77;21019;-64
2021/10/04 04:26:40;;;;;;;22.10;18.55;;;;;;;12.36;52.58;101074.06;1813695;78;21068;-64
2021/10/04 04:29:06;;;;;;;21.97;17.87;;;;;;;12.35;52.57;101074.20;1819731;77;21083;-64
2021/10/04 04:31:33;;;;;;;24.85;18.60;;;;;;;12.32;52.60;101073.14;1822103;77;21078;-64
2021/10/04 04:33:59;;;;;;;24.18;18.98;;;;;;;12.30;52.64;101075.95;1820334;77;21036;-62
2021/10/04 04:36:25;;;;;;;26.65;19.23;;;;;;;12.27;52.69;101062.94;1825006;77;21562;-63
2021/10/04 04:38:52;;;;;;;24.70;19.15;;;;;;;12.27;52.76;101069.60;1822647;77;21515;-64
2021/10/04 04:41:18;;;;;;;24.15;17.50;;;;;;;12.27;52.79;101063.44;1824065;77;20985;-63
2021/10/04 04:43:45;;;;;;;26.57;17.67;;;;;;;12.27;52.81;101062.11;1823772;78;21056;-64
2021/10/04 04:46:12;;;;;;;26.82;18.45;;;;;;;12.28;52.80;101059.77;1816655;77;21068;-64
2021/10/04 04:48:38;;;;;;;22.13;16.80;;;;;;;12.30;52.81;101061.80;1821479;77;21004;-63
2021/10/04 04:51:05;;;;;;;23.05;16.70;;;;;;;12.31;52.76;101058.99;1846510;77;21566;-63
2021/10/04 04:53:31;;;;;;;21.60;17.27;;;;;;;12.34;52.71;101065.84;1804703;77;21579;-63
2021/10/04 04:55:57;;;;;;;23.25;17.15;;;;;;;12.35;52.66;101067.03;1820095;77;21120;-64
2021/10/04 04:58:23;;;;;;;21.93;17.82;;;;;;;12.37;52.62;101061.06;1810858;77;21086;-65
2021/10/04 05:00:50;;;;;;;30.35;21.52;;;;;;;12.41;52.63;101068.77;1835463;77;21040;-66
2021/10/04 05:03:18;;;;;;;37.10;26.42;;;;;;;12.41;52.70;101068.27;1818257;77;21668;-65
2021/10/04 05:05:44;;;;;;;35.08;22.77;;;;;;;12.43;52.75;101072.13;1817281;77;21112;-62
2021/10/04 05:08:11;;;;;;;33.78;22.80;;;;;;;12.41;52.79;101070.94;1820447;77;21049;-63
2021/10/04 05:10:37;;;;;;;31.52;25.75;;;;;;;12.41;52.87;101065.61;1820716;77;21056;-64
2021/10/04 05:13:04;;;;;;;31.85;24.02;;;;;;;12.40;52.92;101067.95;1824829;78;21053;-64
2021/10/04 05:15:30;;;;;;;37.58;28.02;;;;;;;12.39;52.95;101069.75;1822500;77;21544;-64
2021/10/04 05:17:57;;;;;;;37.85;25.10;;;;;;;12.37;53.00;101067.72;1821523;78;21072;-64
2021/10/04 05:20:23;;;;;;;27.17;21.57;;;;;;;12.35;53.05;101077.69;1821668;78;21086;-63
2021/10/04 05:22:50;;;;;;;29.45;20.37;;;;;;;12.33;53.12;101079.67;1837155;77;21030;-63
2021/10/04 05:25:16;;;;;;;28.27;19.12;;;;;;;12.32;53.19;101085.14;1810194;77;21003;-64
2021/10/04 05:27:43;;;;;;;25.80;19.23;;;;;;;12.32;53.28;101086.00;1810400;77;21046;-64
2021/10/04 05:30:10;;;;;;;29.95;20.62;;;;;;;12.30;53.36;101087.94;1807390;77;20992;-63
2021/10/04 05:32:37;;;;;;;26.40;18.62;;;;;;;12.28;53.45;101085.92;1809151;77;21585;-63
2021/10/04 05:35:04;;;;;;;20.88;17.57;;;;;;;12.30;53.48;101091.11;1807223;77;21065;-64
2021/10/04 05:37:31;;;;;;;22.98;17.32;;;;;;;12.28;53.33;101089.91;1812344;77;21037;-64
2021/10/04 05:39:57;;;;;;;22.00;17.17;;;;;;;12.28;53.28;101091.75;1812944;77;21029;-64
2021/10/04 05:42:24;;;;;;;23.05;17.70;;;;;;;12.28;53.22;101092.58;1806219;77;21593;-63
2021/10/04 05:44:51;;;;;;;20.50;16.80;;;;;;;12.30;53.28;101099.10;1812324;77;21192;-65
2021/10/04 05:47:17;;;;;;;27.62;18.85;;;;;;;12.30;53.41;101098.60;1808843;77;21035;-64
2021/10/04 05:49:45;;;;;;;20.40;18.23;;;;;;;12.32;53.53;101094.47;1807381;77;21060;-63
2021/10/04 05:52:11;;;;;;;22.42;18.75;;;;;;;12.30;53.64;101093.77;1808250;78;21053;-64
2021/10/04 05:54:38;;;;;;;25.57;18.37;;;;;;;12.30;53.74;101097.77;1811716;77;21016;-63
2021/10/04 05:57:04;;;;;;;25.88;19.73;;;;;;;12.29;53.80;101097.44;1826866;77;21025;-64
2021/10/04 05:59:31;;;;;;;25.70;18.70;;;;;;;12.30;53.70;101101.27;1804187;77;21077;-63
2021/10/04 06:01:57;;;;;;;24.50;19.77;;;;;;;12.31;53.70;101102.13;1811052;77;21135;-65
2021/10/04 06:04:23;;;;;;;24.82;17.75;;;;;;;12.31;53.71;101100.30;1809033;77;21134;-63
2021/10/04 06:06:51;;;;;;;27.05;19.92;;;;;;;12.31;53.72;101104.80;1817197;77;21056;-63
2021/10/04 06:09:17;;;;;;;24.55;20.55;;;;;;;12.33;53.71;101100.98;1798573;77;21188;-64
2021/10/04 06:11:44;;;;;;;30.37;19.23;;;;;;;12.35;53.74;101104.34;1807915;77;21020;-63
2021/10/04 06:14:10;;;;;;;26.52;18.98;;;;;;;12.37;53.75;101094.37;1814023;77;20994;-64
2021/10/04 06:16:37;;;;;;;31.55;20.02;;;;;;;12.39;53.66;101104.39;1804757;78;21771;-64
2021/10/04 06:19:03;;;;;;;29.57;19.25;;;;;;;12.43;53.57;101102.78;1813728;77;21515;-64
2021/10/04 06:21:30;;;;;;;26.02;20.57;;;;;;;12.45;53.58;101103.47;1801253;78;22014;-65
2021/10/04 06:23:56;;;;;;;25.23;19.85;;;;;;;12.48;53.60;101097.86;1813251;77;21693;-64
2021/10/04 06:26:23;;;;;;;29.67;21.90;;;;;;;12.50;53.62;101098.05;1814057;78;21540;-63
2021/10/04 06:28:49;;;;;;;30.70;19.12;;;;;;;12.52;53.64;101098.73;1813951;77;21073;-63
2021/10/04 06:31:15;;;;;;;22.93;18.23;;;;;;;12.57;53.65;101106.28;1813285;77;21057;-65
2021/10/04 06:33:41;;;;;;;24.87;18.37;;;;;;;12.60;53.50;101099.33;1809907;77;21129;-64
2021/10/04 06:36:08;;;;;;;27.42;18.75;;;;;;;12.63;53.42;101097.68;1813229;77;21037;-63
2021/10/04 06:38:34;;;;;;;22.95;18.25;;;;;;;12.65;53.42;101097.07;1812850;77;21025;-62
2021/10/04 06:41:00;;;;;;;24.23;17.80;;;;;;;12.69;53.48;101098.91;1815255;77;21524;-63
2021/10/04 06:43:27;;;;;;;21.62;16.02;;;;;;;12.72;53.52;101105.30;1813376;77;21807;-63
2021/10/04 06:45:53;;;;;;;25.80;17.50;;;;;;;12.75;53.45;101100.52;1813553;77;21103;-64
2021/10/04 06:48:19;;;;;;;28.50;17.75;;;;;;;12.78;53.45;101100.19;1817242;77;21004;-64
2021/10/04 06:50:45;;;;;;;28.40;17.35;;;;;;;12.84;53.58;101104.59;1797843;78;21064;-63
2021/10/04 06:53:12;;;;;;;24.90;17.20;;;;;;;12.88;53.61;101107.30;1815806;77;21450;-63
2021/10/04 06:55:38;;;;;;;22.60;16.80;;;;;;;12.93;53.51;101111.70;1817457;77;20972;-63
2021/10/04 06:58:05;;;;;;;27.45;17.25;;;;;;;12.97;53.52;101105.91;1815923;77;21135;-64
2021/10/04 07:00:31;;;;;;;21.10;17.60;;;;;;;13.02;53.47;101104.14;1805037;78;21021;-64
2021/10/04 07:02:59;;;;;;;19.40;16.60;;;;;;;13.06;53.38;101108.19;1818038;77;21035;-64
2021/10/04 07:05:25;;;;;;;25.77;17.15;;;;;;;13.11;53.27;101107.21;1814613;77;21040;-64
2021/10/04 07:07:55;;;;;;;26.62;18.07;;;;;;;13.16;53.15;101105.45;1814618;77;21049;-63
2021/10/04 07:10:20;;;;;;;21.10;16.23;;;;;;;13.22;53.04;101110.17;1804322;78;21184;-64
2021/10/04 07:12:47;;;;;;;21.93;15.85;;;;;;;13.28;52.91;101113.56;1815015;77;21059;-63
2021/10/04 07:15:13;;;;;;;20.82;17.62;;;;;;;13.34;52.82;101117.48;1813267;77;21587;-63
2021/10/04 07:17:39;;;;;;;22.25;17.35;;;;;;;13.39;52.69;101113.04;1816236;77;21012;-64
2021/10/04 07:20:07;;;;;;;21.75;16.52;;;;;;;13.45;52.60;101111.09;1817366;77;21075;-63
2021/10/04 07:22:34;;;;;;;22.52;16.85;;;;;;;13.50;52.42;101115.45;1815856;77;21096;-64
2021/10/04 07:25:00;;;;;;;21.93;17.77;;;;;;;13.55;52.26;101109.99;1815747;77;21015;-64
2021/10/04 07:27:26;;;;;;;21.60;16.52;;;;;;;13.62;52.08;101112.04;1822818;77;21039;-64
2021/10/04 07:29:53;;;;;;;18.85;15.13;;;;;;;13.69;51.91;101114.44;1822794;77;21033;-63
2021/10/04 07:32:19;;;;;;;20.97;13.48;;;;;;;13.76;51.30;101115.51;1823292;77;21057;-64
2021/10/04 07:34:45;;;;;;;20.97;13.90;;;;;;;13.84;50.40;101112.89;1822714;77;21036;-65
2021/10/04 07:37:12;;;;;;;17.50;13.50;;;;;;;13.91;49.50;101113.12;1828331;77;20994;-64
2021/10/04 07:39:38;;;;;;;14.98;11.00;;;;;;;13.99;48.83;101112.34;1822749;77;21084;-63
2021/10/04 07:42:05;;;;;;;20.05;14.23;;;;;;;14.05;48.23;101111.70;1825458;77;21822;-63
2021/10/04 07:44:31;;;;;;;20.50;14.03;;;;;;;14.10;47.86;101108.91;1821829;77;21563;-63
2021/10/04 07:46:57;;;;;;;18.70;12.63;;;;;;;14.19;47.80;101112.95;1818867;78;21947;-64
2021/10/04 07:49:25;;;;;;;18.45;11.63;;;;;;;14.25;47.60;101113.65;1822903;77;21476;-63
2021/10/04 07:51:51;;;;;;;16.52;11.20;;;;;;;14.33;47.21;101118.55;1821007;77;21036;-63
2021/10/04 07:54:18;;;;;;;23.80;11.40;;;;;;;14.40;46.40;101116.07;1823131;77;20990;-62
2021/10/04 07:56:44;;;;;;;16.05;10.50;;;;;;;14.48;45.57;101120.62;1836210;77;21032;-63
2021/10/04 07:59:11;;;;;;;13.30;10.43;;;;;;;14.53;45.17;101116.47;1818460;77;21181;-62
2021/10/04 08:01:37;;;;;;;16.87;10.23;;;;;;;14.60;44.68;101120.69;1822607;77;20979;-63
2021/10/04 08:04:05;;;;;;;20.30;10.70;;;;;;;14.66;44.76;101113.39;1834826;77;21078;-64
2021/10/04 08:06:32;;;;;;;19.90;12.18;;;;;;;14.73;44.57;101105.55;1824289;77;21042;-62
2021/10/04 08:09:00;;;;;;;16.60;10.50;;;;;;;14.80;44.50;101099.06;1816919;77;21026;-64
2021/10/04 08:11:26;;;;;;;13.70;9.95;;;;;;;14.88;44.13;101100.41;1821914;77;21201;-65
2021/10/04 08:13:53;;;;;;;15.43;9.10;;;;;;;14.97;44.11;101102.59;1823067;77;21111;-64
2021/10/04 08:16:23;;;;;;;16.05;11.53;;;;;;;15.03;43.79;101101.97;1805666;77;21013;-62
2021/10/04 08:18:52;;;;;;;15.83;10.72;;;;;;;15.10;43.90;101099.80;1813591;77;21553;-63
2021/10/04 08:21:21;;;;;;;17.25;11.60;;;;;;;15.20;44.24;101097.45;1808297;77;21206;-63
2021/10/04 08:23:48;;;;;;;17.95;10.75;;;;;;;15.26;44.91;101104.34;1820319;77;21083;-62
2021/10/04 08:26:15;;;;;;;15.83;9.13;;;;;;;15.35;44.22;101102.49;1820459;77;21073;-62
2021/10/04 08:28:41;;;;;;;15.75;8.80;;;;;;;15.42;43.34;101106.19;1825319;77;21029;-63
2021/10/04 08:31:08;;;;;;;13.43;8.40;;;;;;;15.51;42.37;101103.00;1824820;77;21040;-65
2021/10/04 08:33:34;;;;;;;11.12;7.85;;;;;;;15.59;41.82;101103.02;1819646;77;20998;-65
2021/10/04 08:36:01;;;;;;;17.40;7.70;;;;;;;15.67;41.69;101100.84;1817853;77;21102;-64
2021/10/04 08:38:27;;;;;;;11.15;7.53;;;;;;;15.75;41.49;101106.22;1828158;77;21524;-64
2021/10/04 08:40:54;;;;;;;11.85;7.92;;;;;;;15.84;41.12;101111.91;1814028;77;21605;-64
2021/10/04 08:43:21;;;;;;;11.90;8.23;;;;;;;15.94;40.90;101104.20;1809384;77;20986;-64
2021/10/04 08:45:47;;;;;;;10.43;8.23;;;;;;;16.03;40.55;101107.17;1814785;77;21017;-63
2021/10/04 08:48:14;;;;;;;13.72;9.08;;;;;;;16.11;40.42;101113.37;1808810;77;21560;-64
2021/10/04 08:50:40;;;;;;;14.78;8.25;;;;;;;16.21;40.88;101118.54;1812805;77;20978;-64
2021/10/04 08:53:07;;;;;;;10.43;7.03;;;;;;;16.31;40.28;101104.94;1813332;77;20991;-66
2021/10/04 08:55:35;;;;;;;12.78;7.10;;;;;;;16.40;39.57;101106.59;1810429;77;21017;-64
2021/10/04 08:58:10;;;;;;;11.35;7.50;;;;;;;16.50;38.80;101109.06;1815172;77;21552;-65
2021/10/04 09:00:38;;;;;;;11.53;7.70;;;;;;;16.59;38.71;101106.69;1810492;77;21793;-63
2021/10/04 09:03:04;;;;;;;9.78;7.53;;;;;;;16.68;39.00;101108.30;1804647;77;21076;-65
2021/10/04 09:05:32;;;;;;;15.08;8.30;;;;;;;16.77;39.38;101106.43;1822897;77;21063;-63
2021/10/04 09:08:07;;;;;;;10.13;6.85;;;;;;;16.86;39.14;101112.61;1803680;77;20978;-65
2021/10/04 09:10:35;;;;;;;9.33;6.37;;;;;;;16.95;38.64;101102.16;1811708;77;21017;-63
2021/10/04 09:13:08;;;;;;;11.65;6.35;;;;;;;17.04;37.93;101106.98;1820376;77;21098;-64
2021/10/04 09:15:47;;;;;;;9.38;6.55;;;;;;;17.12;38.06;101104.25;1809489;77;21013;-63
2021/10/04 09:18:26;;;;;;;7.28;6.00;;;;;;;17.21;38.04;101105.02;1810959;77;21065;-64
2021/10/04 09:21:09;;;;;;;11.48;6.42;;;;;;;17.30;37.96;101102.61;1805769;77;21037;-63
2021/10/04 09:23:47;;;;;;;10.93;6.25;;;;;;;17.39;37.90;101105.56;1818481;77;21575;-65
2021/10/04 09:26:31;;;;;;;10.18;5.97;;;;;;;17.50;37.77;101096.26;1815591;77;21168;-64
2021/10/04 09:29:08;;;;;;;8.60;6.87;;;;;;;17.60;36.98;101093.32;1840787;77;21528;-65
2021/10/04 09:31:40;;;;;;;7.45;6.00;;;;;;;17.70;36.82;101093.89;1843173;77;21024;-64
2021/10/04 09:34:20;;;;;;;9.83;5.65;;;;;;;17.79;36.70;101095.98;1840737;77;20989;-64
2021/10/04 09:36:56;;;;;;;7.72;6.40;;;;;;;17.86;36.92;101089.72;1831051;77;21447;-63
2021/10/04 09:39:31;;;;;;;6.08;5.47;;;;;;;17.96;36.94;101084.08;1809457;77;21785;-65
2021/10/04 09:42:14;;;;;;;9.60;6.50;;;;;;;18.06;36.93;101083.84;1809666;77;21498;-63
2021/10/04 09:44:56;;;;;;;7.20;6.50;;;;;;;18.16;36.40;101081.70;1808861;77;22020;-63
2021/10/04 09:47:39;;;;;;;10.15;6.70;;;;;;;18.27;36.23;101075.86;1810103;77;21036;-62
2021/10/04 09:50:25;;;;;;;8.58;6.37;;;;;;;18.37;36.04;101071.53;1800512;77;21059;-63
2021/10/04 09:52:55;;;;;;;10.70;6.03;;;;;;;18.49;36.01;101073.23;1816702;76;21187;-62
2021/10/04 09:55:39;;;;;;;10.05;6.28;;;;;;;18.60;35.98;101081.32;1797629;78;21532;-64
2021/10/04 09:58:16;;;;;;;8.90;7.45;;;;;;;18.70;35.45;101065.73;1801489;77;21092;-63
2021/10/04 10:00:50;;;;;;;9.53;7.03;;;;;;;18.80;35.67;101064.11;1802574;77;21068;-63
2021/10/04 10:03:18;;;;;;;7.78;5.50;;;;;;;18.92;35.58;101068.48;1808185;79;21017;-63
2021/10/04 10:05:50;;;;;;;7.70;5.20;;;;;;;19.03;35.31;101064.77;1808307;77;21159;-63
2021/10/04 10:08:20;;;;;;;6.10;5.30;;;;;;;19.16;34.97;101060.04;1809077;77;21061;-62
2021/10/04 10:10:46;;;;;;;6.22;5.20;;;;;;;19.27;34.35;101060.54;1814105;77;21054;-67
2021/10/04 10:13:16;;;;;;;13.13;6.17;;;;;;;19.39;34.11;101048.20;1786000;77;21106;-64
2021/10/04 10:15:48;;;;;;;7.33;5.30;;;;;;;19.51;34.00;101048.02;1805679;77;21502;-63
2021/10/04 10:18:24;;;;;;;10.08;5.80;;;;;;;19.62;34.12;101043.93;1835793;77;21836;-62
2021/10/04 10:20:56;;;;;;;8.08;5.45;;;;;;;19.72;33.91;101036.38;1794281;77;20993;-62
2021/10/04 10:23:57;;;;;;;6.83;5.60;;;;;;;19.83;33.81;101046.59;1809821;77;21091;-63
2021/10/04 10:26:33;;;;;;;8.03;5.33;;;;;;;19.93;33.54;101046.24;1811804;77;21052;-64
2021/10/04 10:29:22;;;;;;;6.33;5.25;;;;;;;20.03;33.41;101044.56;1820986;77;21113;-63
2021/10/04 10:31:57;;;;;;;8.15;5.20;;;;;;;20.16;33.18;101038.39;1802853;77;21515;-64
2021/10/04 10:34:39;;;;;;;6.87;5.10;;;;;;;20.27;32.97;101033.78;1811137;77;21086;-64
2021/10/04 10:37:18;;;;;;;5.70;4.77;;;;;;;20.38;32.64;101033.73;1813944;77;21516;-65
2021/10/04 10:40:13;;;;;;;5.35;4.85;;;;;;;20.50;32.41;101024.02;1813656;77;22218;-67
2021/10/04 10:42:41;;;;;;;6.05;4.78;;;;;;;20.61;32.05;101039.66;1811527;78;21065;-65
2021/10/04 10:45:11;;;;;;;5.97;4.60;;;;;;;20.74;31.37;101033.98;1810366;77;21065;-66
2021/10/04 10:47:45;;;;;;;6.33;4.08;;;;;;;20.81;31.14;101026.20;1807786;77;21010;-65
2021/10/04 10:50:34;;;;;;;4.78;4.33;;;;;;;20.88;31.04;101024.03;1798824;77;21492;-65
2021/10/04 10:53:06;;;;;;;5.35;4.30;;;;;;;20.94;31.06;101021.89;1809107;77;21025;-66
2021/10/04 10:55:39;;;;;;;4.42;3.98;;;;;;;21.00;31.04;101037.27;1811980;78;21013;-65
2021/10/04 10:58:16;;;;;;;7.72;3.70;;;;;;;21.06;31.02;101018.88;1813612;77;21766;-65
2021/10/04 11:00:51;;;;;;;5.78;4.28;;;;;;;21.12;30.54;101027.50;1809582;77;21580;-64
2021/10/04 11:03:27;;;;;;;5.10;3.98;;;;;;;21.16;30.37;101021.99;1808005;77;21583;-65
2021/10/04 11:06:04;;;;;;;4.87;3.80;;;;;;;21.19;30.34;101016.72;1801953;77;21124;-64
2021/10/04 11:08:50;;;;;;;6.10;4.72;;;;;;;21.25;30.21;101017.73;1833765;77;21533;-63
2021/10/04 11:11:18;;;;;;;7.87;4.15;;;;;;;21.29;30.33;101011.72;1812332;77;21141;-63
2021/10/04 11:14:07;;;;;;;8.35;4.53;;;;;;;21.35;30.49;101024.92;1810073;77;21100;-63
2021/10/04 11:16:41;;;;;;;4.53;4.12;;;;;;;21.40;30.07;101017.00;1807481;78;20998;-63
2021/10/04 11:19:08;;;;;;;4.53;3.60;;;;;;;21.47;29.76;101006.23;1814348;77;21546;-63